• Join FlightAware (Why Join?)
  • Login
  • US Flag 
05:22AM EDT


 

Airport Tracker/Info


-or-


 

Live Flight TrackerFlight Track Log ✈ AVN31 ✈ 24-Apr-2014 ✈ YMML / MEL - NVVV / VLI

Flight Track Log - Related Links

Times and Time Zones

All times are in EDT time to prevent confusion due to time zone crossing. See the AVN31 flight status page for this flight to view local times or setup timezone preferences in your user account.

Time Position Orientation Groundspeed Altitude Reporting Facility
EDT Latitude Longitude Course Direction KTS MPH feet Rate Location/Type
07:19AM -37.7000 144.8460 177° South 2,600  Level Aus ATC (Calculated)
07:19AM -37.7203 144.8475 171° South 167 192 2,000 -780 Descending FlightAware ADS-B (EGUD / ABB)
07:20AM -37.7230 144.8480 170° South 172 198 2,100 1,560 Climbing FlightAware ADS-B
07:20AM -37.7326 144.8490 182° South 184 212 2,400 1,320 Climbing FlightAware ADS-B (YBRS)
07:20AM -37.7369 144.8484 190° South 191 220 2,500 1,200 Climbing FlightAware ADS-B (EGUD / ABB)
07:20AM -37.7410 144.8472 198° South 198 228 2,600 1,980 Climbing FlightAware ADS-B (YBRS)
07:20AM -37.7430 144.8460 202° Southwest 201 231 2,700 1,980 Climbing FlightAware ADS-B
07:20AM -37.7460 144.8446 206° Southwest 204 235 2,800 2,460 Climbing FlightAware ADS-B (EGUD / ABB)
07:20AM -37.7530 144.8380 222° Southwest 211 243 3,200 2,700 Climbing FlightAware ADS-B
07:20AM -37.7548 144.8354 228° Southwest 212 244 3,300 1,980 Climbing FlightAware ADS-B (YBRS)
07:20AM -37.7570 144.8330 235° Southwest 217 250 3,400 1,800 Climbing FlightAware ADS-B
07:20AM -37.7599 144.8247 246° West 228 262 3,600 1,500 Climbing FlightAware ADS-B (YBRS)
07:20AM -37.7610 144.8190 254° West 236 272 3,700 1,800 Climbing FlightAware ADS-B
07:21AM -37.7623 144.8120 264° West 244 281 3,900 1,980 Climbing FlightAware ADS-B (YBRS)
07:21AM -37.7620 144.8090 266° West 246 283 3,900 1,680 Level FlightAware ADS-B
07:21AM -37.7620 144.8000 275° West 254 292 4,100 1,800 Climbing FlightAware ADS-B
07:21AM -37.7617 144.7966 277° West 257 296 4,200 2,460 Climbing FlightAware ADS-B (YBRS)
07:21AM -37.7590 144.7820 285° West 263 303 4,600 3,300 Climbing FlightAware ADS-B
07:21AM -37.7550 144.7650 294° West 261 300 5,300 3,300 Climbing FlightAware ADS-B
07:21AM -37.7510 144.7580 303° West 263 303 5,600 3,000 Climbing FlightAware ADS-B
07:21AM -37.7485 144.7531 307° West 264 304 5,800 3,000 Climbing FlightAware ADS-B (YBRS)
07:21AM -37.7460 144.7500 310° West 266 306 5,900 2,220 Climbing FlightAware ADS-B
07:21AM -37.7420 144.7450 319° Northwest 267 307 6,100 3,000 Climbing FlightAware ADS-B
07:21AM -37.7398 144.7421 321° Northwest 267 307 6,300 3,960 Climbing FlightAware ADS-B (YBRS)
07:21AM -37.7350 144.7380 328° Northwest 271 312 6,500 3,600 Climbing FlightAware ADS-B
07:22AM -37.7280 144.7340 338° Northwest 273 314 6,900 3,420 Climbing FlightAware ADS-B
07:22AM -37.7286 144.7339 338° Northwest 272 313 6,900 1,980 Level FlightAware ADS-B (EGUD / ABB)
07:22AM -37.7220 144.7310 346° North 276 318 7,100 3,000 Climbing FlightAware ADS-B
07:22AM -37.7203 144.7307 347° North 275 316 7,200 3,960 Climbing FlightAware ADS-B (YBRS)
07:22AM -37.7130 144.7290 356° North 276 318 7,500 3,000 Climbing FlightAware ADS-B
07:22AM -37.7050 144.7300 North 281 323 7,800 2,640 Climbing FlightAware ADS-B
07:22AM -37.7030 144.7300 10° North 283 326 7,900 3,000 Climbing FlightAware ADS-B (EGUD / ABB)
07:22AM -37.6970 144.7320 14° North 288 331 8,100 3,000 Climbing FlightAware ADS-B
07:22AM -37.6937 144.7329 17° North 289 333 8,200 3,600 Climbing FlightAware ADS-B (YBRS)
07:22AM -37.6900 144.7350 19° North 290 334 8,400 3,000 Climbing FlightAware ADS-B
07:22AM -37.6716 144.7434 23° Northeast 294 338 9,200 3,000 Climbing FlightAware ADS-B (YBRS)
07:22AM -37.6680 144.7450 22° Northeast 294 338 9,300 2,400 Climbing FlightAware ADS-B
07:23AM -37.6305 144.7649 22° Northeast 307 353 10,400 1,860 Climbing FlightAware ADS-B (EGUD / ABB)
07:23AM -37.6030 144.7780 21° North 335 386 10,800 1,140 Climbing FlightAware ADS-B
07:23AM -37.5801 144.7904 25° Northeast 356 410 11,100 1,500 Climbing FlightAware ADS-B (YBRS)
07:24AM -37.5680 144.7980 28° Northeast 361 415 11,400 2,580 Climbing FlightAware ADS-B
07:24AM -37.5353 144.8251 36° Northeast 371 427 12,400 2,640 Climbing FlightAware ADS-B (YBRS)
07:24AM -37.5170 144.8420 36° Northeast 376 433 13,000 2,700 Climbing FlightAware ADS-B
07:24AM -37.4918 144.8652 36° Northeast 381 438 13,800 2,700 Climbing FlightAware ADS-B (YBRS)
07:25AM -37.4352 144.9177 36° Northeast 393 452 15,600 2,820 Climbing FlightAware ADS-B (YBRS)
07:25AM -37.4230 144.9290 36° Northeast 396 456 16,100 2,880 Climbing FlightAware ADS-B
07:26AM -37.3780 144.9700 36° Northeast 402 463 17,500 2,700 Climbing FlightAware ADS-B
07:26AM -37.3315 145.0134 36° Northeast 406 467 18,900 2,760 Climbing FlightAware ADS-B (EGUD / ABB)
07:27AM -37.2790 145.0614 36° Northeast 413 475 20,500 2,520 Climbing FlightAware ADS-B (YBRS)
07:27AM -37.2323 145.1042 36° Northeast 421 484 21,600 2,220 Climbing FlightAware ADS-B (YBRS)
07:27AM -37.2210 145.1150 36° Northeast 424 488 21,900 2,100 Climbing FlightAware ADS-B
07:28AM -37.1763 145.1555 36° Northeast 431 496 22,900 1,980 Climbing FlightAware ADS-B (YBRS)
07:28AM -37.1246 145.2027 36° Northeast 439 505 23,900 1,980 Climbing FlightAware ADS-B (YBRS)
07:29AM -37.1140 145.2120 36° Northeast 440 506 24,100 1,980 Climbing FlightAware ADS-B
07:29AM -37.0761 145.2472 38° Northeast 444 511 24,900 2,040 Climbing FlightAware ADS-B (YBRS)
07:29AM -37.0620 145.2615 38° Northeast 445 512 25,200 1,980 Climbing FlightAware ADS-B (EGUD / ABB)
07:29AM -37.0560 145.2680 39° Northeast 448 516 25,300 1,860 Climbing FlightAware ADS-B
07:30AM -37.0109 145.3143 40° Northeast 452 520 26,200 1,980 Climbing FlightAware ADS-B (YBRS)
07:30AM -37.0080 145.3180 39° Northeast 453 521 26,300 1,800 Climbing FlightAware ADS-B
07:30AM -36.9627 145.3641 40° Northeast 457 526 27,100 1,620 Climbing FlightAware ADS-B (EGUD / ABB)
07:30AM -36.9490 145.3780 39° Northeast 459 528 27,300 1,560 Climbing FlightAware ADS-B
07:31AM -36.9065 145.4220 40° Northeast 464 534 28,000 1,500 Climbing FlightAware ADS-B (YBRS)
07:31AM -36.8910 145.4380 39° Northeast 467 537 28,200 1,380 Climbing FlightAware ADS-B
07:31AM -36.8565 145.4734 40° Northeast 470 541 28,700 1,560 Climbing FlightAware ADS-B (YBRS)
07:31AM -36.8390 145.4910 39° Northeast 472 543 29,000 1,380 Climbing FlightAware ADS-B
07:32AM -36.8085 145.5230 40° Northeast 475 547 29,400 1,140 Climbing FlightAware ADS-B (YBRS)
07:32AM -36.7900 145.5420 39° Northeast 477 549 29,600 1,500 Climbing FlightAware ADS-B
07:32AM -36.7494 145.5839 40° Northeast 477 549 30,300 1,860 Climbing FlightAware ADS-B (EGUD / ABB)
07:32AM -36.7280 145.6060 39° Northeast 475 547 30,700 2,100 Climbing FlightAware ADS-B
07:33AM -36.6892 145.6456 40° Northeast 469 540 31,500 1,920 Climbing FlightAware ADS-B (YBRS)
07:33AM -36.6401 145.6958 39° Northeast 466 536 32,400 1,860 Climbing FlightAware ADS-B (YBRS)
07:33AM -36.6270 145.7090 39° Northeast 466 536 32,700 1,980 Climbing FlightAware ADS-B
07:34AM -36.5928 145.7440 39° Northeast 462 532 33,400 1,620 Climbing FlightAware ADS-B (YBRS)
07:34AM -36.5790 145.7580 39° Northeast 462 532 33,500 1,560 Climbing FlightAware ADS-B
07:34AM -36.5439 145.7937 39° Northeast 458 527 34,200 1,860 Climbing FlightAware ADS-B (YBRS)
07:34AM -36.5300 145.8080 39° Northeast 459 528 34,400 1,560 Climbing FlightAware ADS-B
07:35AM -36.4843 145.8541 39° Northeast 456 525 35,100 1,380 Climbing FlightAware ADS-B (YBRS)
07:35AM -36.4342 145.9048 39° Northeast 453 521 35,800 1,320 Climbing FlightAware ADS-B (YBRS)
07:36AM -36.4200 145.9190 39° Northeast 454 522 36,000 1,200 Climbing FlightAware ADS-B
07:36AM -36.3873 145.9523 39° Northeast 453 521 36,400 1,020 Climbing FlightAware ADS-B (YBRS)
07:36AM -36.3349 146.0058 40° Northeast 456 525 36,900 840 Climbing FlightAware ADS-B (YBRS)
07:37AM -36.2858 146.0557 39° Northeast 459 528 37,300 780 Climbing FlightAware ADS-B (YBRS)
07:37AM -36.2630 146.0790 39° Northeast 461 531 37,500 780 Climbing FlightAware ADS-B
07:37AM -36.2391 146.1028 39° Northeast 461 531 37,700 720 Climbing FlightAware ADS-B (YBRS)
07:38AM -36.1716 146.1704 39° Northeast 463 533 38,200 840 Climbing FlightAware ADS-B (YBRS)
07:39AM -36.1215 146.2207 39° Northeast 462 532 38,700 780 Climbing FlightAware ADS-B (YBRS)
07:39AM -36.0717 146.2704 39° Northeast 462 532 39,000 240 Climbing FlightAware ADS-B (YBRS)
07:40AM -36.0153 146.3268 39° Northeast 464 534 39,000  Level FlightAware ADS-B (YBRS)
07:40AM -35.9660 146.3760 39° Northeast 464 534 39,000  Level FlightAware ADS-B (YBRS)
07:41AM -35.9148 146.4269 39° Northeast 464 534 39,000  Level FlightAware ADS-B (YBRS)
07:41AM -35.8637 146.4775 39° Northeast 463 533 39,000  Level FlightAware ADS-B (YBRS)
07:42AM -35.8114 146.5292 39° Northeast 463 533 39,000  Level FlightAware ADS-B (YBRS)
07:42AM -35.7541 146.5862 39° Northeast 463 533 39,000  Level FlightAware ADS-B (YBRS)
07:43AM -35.7134 146.6264 39° Northeast 462 532 39,000  Level FlightAware ADS-B (YBRS)
07:44AM -35.6287 146.7103 39° Northeast 462 532 39,000  Level FlightAware ADS-B (YBRS)
07:44AM -35.5658 146.7722 39° Northeast 461 531 39,000  Level FlightAware ADS-B (YBRS)
07:45AM -35.5055 146.8315 39° Northeast 460 529 39,000  Level FlightAware ADS-B (YBRS)
07:45AM -35.4504 146.8855 39° Northeast 460 529 39,000 120 Level FlightAware ADS-B (YBRS)
07:46AM -35.3880 146.9462 39° Northeast 458 527 39,200  Climbing Aus ATC (RADAR)
07:46AM -35.3952 146.9396 39° Northeast 460 529 39,000  Descending FlightAware ADS-B (YBRS)
07:46AM -35.3549 146.9781 38° Northeast 456 525 39,200 240 Climbing Aus ATC (RADAR)
07:47AM -35.3131 147.0182 39° Northeast 458 527 39,200 -420 Level Aus ATC (RADAR)
07:47AM -35.3026 147.0298 39° Northeast 453 521 39,000  Descending FlightAware ADS-B (YRAY)
07:47AM -35.2553 147.0750 39° Northeast 457 526 39,200 120 Climbing Aus ATC (RADAR)
07:48AM -35.1885 147.1392 38° Northeast 458 527 39,200 -120 Level Aus ATC (RADAR)
07:48AM -35.1385 147.1888 39° Northeast 458 527 39,100 -180 Descending Aus ATC (RADAR)
07:49AM -35.1156 147.2119 39° Northeast 460 529 39,000 60 Descending FlightAware ADS-B (YRPA)
07:50AM -35.0143 147.3097 39° Northeast 457 526 39,200  Climbing Aus ATC (RADAR)
07:50AM -34.9794 147.3439 39° Northeast 460 529 39,000  Descending FlightAware ADS-B (YRPA)
07:51AM -34.8979 147.4223 39° Northeast 458 527 39,200  Climbing Aus ATC (RADAR)
07:51AM -34.9019 147.4186 39° Northeast 461 531 39,000  Descending FlightAware ADS-B (YRPA)
07:52AM -34.7804 147.5347 39° Northeast 460 529 39,200  Climbing Aus ATC (RADAR)
07:52AM -34.7916 147.5246 38° Northeast 464 534 39,000  Descending FlightAware ADS-B (YRPA)
07:53AM -34.6794 147.6317 38° Northeast 460 529 39,200  Climbing Aus ATC (RADAR)
07:53AM -34.6940 147.6183 38° Northeast 466 536 39,000  Descending FlightAware ADS-B (YRPA)
07:54AM -34.5609 147.7447 38° Northeast 463 533 39,200  Climbing Aus ATC (RADAR)
07:54AM -34.6395 147.6703 38° Northeast 466 536 39,000 -180 Descending FlightAware ADS-B (YRPA)
07:55AM -34.4465 147.8539 38° Northeast 467 537 39,000 60 Level FlightAware ADS-B (YRPA)
07:56AM -34.3574 147.9378 38° Northeast 465 535 39,200  Climbing Aus ATC (RADAR)
07:56AM -34.3543 147.9413 38° Northeast 467 537 39,000  Descending FlightAware ADS-B (YRPA)
07:57AM -34.2564 148.0336 38° Northeast 460 529 39,200  Climbing Aus ATC (RADAR)
07:57AM -34.2526 148.0375 38° Northeast 466 536 39,000  Descending FlightAware ADS-B (YRPA)
07:58AM -34.1800 148.1055 38° Northeast 461 531 39,200  Climbing Aus ATC (RADAR)
07:58AM -34.1417 148.1421 38° Northeast 465 535 39,000 -120 Descending FlightAware ADS-B (YRPA)
07:59AM -34.0688 148.2106 38° Northeast 464 534 39,100  Climbing Aus ATC (RADAR)
07:59AM -34.0425 148.2354 38° Northeast 465 535 39,000  Descending FlightAware ADS-B (YRPA)
08:00AM -33.9581 148.3136 38° Northeast 465 535 39,100  Climbing Aus ATC (RADAR)
08:00AM -33.9400 148.3310 38° Northeast 468 539 39,000 -120 Descending FlightAware ADS-B (YRPA)
08:01AM -33.8346 148.4292 38° Northeast 470 541 39,000  Level FlightAware ADS-B (YRPA)
08:02AM -33.7317 148.5250 38° Northeast 472 543 39,000  Level FlightAware ADS-B (YRPA)
08:03AM -33.6748 148.5780 38° Northeast 472 543 39,000 60 Level FlightAware ADS-B (YRAY)
08:03AM -33.6159 148.6334 38° Northeast 472 543 39,100 60 Climbing Aus ATC (RADAR)
08:04AM -33.5559 148.6891 38° Northeast 470 541 39,100 -120 Level Aus ATC (RADAR)
08:04AM -33.5434 148.6993 38° Northeast 473 544 39,000  Descending FlightAware ADS-B (YRPA)
08:05AM -33.4254 148.8088 38° Northeast 474 545 39,100 60 Climbing Aus ATC (RADAR)
08:06AM -33.3655 148.8642 38° Northeast 469 540 39,100  Level Aus ATC (RADAR)
08:07AM -33.2789 148.9437 37° Northeast 471 542 39,100  Level Aus ATC (RADAR)
08:07AM -33.2361 148.9831 38° Northeast 469 540 39,100 -120 Level Aus ATC (RADAR)
08:08AM -33.1861 149.0279 38° Northeast 469 540 39,000  Descending FlightAware ADS-B (YRPA)
08:08AM -33.1063 149.1010 38° Northeast 468 539 39,100  Climbing Aus ATC (RADAR)
08:09AM -33.0833 149.1217 38° Northeast 469 540 39,000  Descending FlightAware ADS-B (YRPA)
08:09AM -32.9940 149.2030 38° Northeast 470 541 39,100  Climbing Aus ATC (RADAR)
08:10AM -32.9818 149.2139 37° Northeast 470 541 39,000  Descending FlightAware ADS-B (YRPA)
08:10AM -32.8820 149.3040 37° Northeast 468 539 39,100  Climbing Aus ATC (RADAR)
08:11AM -32.8743 149.3110 37° Northeast 471 542 39,000  Descending FlightAware ADS-B (YRPA)
08:11AM -32.8041 149.3744 37° Northeast 469 540 39,100  Climbing Aus ATC (RADAR)
08:12AM -32.7508 149.4227 37° Northeast 471 542 39,000  Descending FlightAware ADS-B (YRPA)
08:12AM -32.6907 149.4771 37° Northeast 475 547 39,100  Climbing Aus ATC (RADAR)
08:13AM -32.6410 149.5219 37° Northeast 471 542 39,000  Descending FlightAware ADS-B (YRPA)
08:14AM -32.5616 149.5951 37° Northeast 471 542 39,100  Climbing Aus ATC (RADAR)
08:14AM -32.5358 149.6221 41° Northeast 475 547 39,000  Descending FlightAware ADS-B (YRPA)
08:15AM -32.4402 149.7218 41° Northeast 467 537 39,100  Climbing Aus ATC (RADAR)
08:15AM -32.4363 149.7260 41° Northeast 473 544 39,000  Descending FlightAware ADS-B (YRPA)
08:16AM -32.3483 149.8173 41° Northeast 472 543 39,100  Climbing Aus ATC (RADAR)
08:16AM -32.3411 149.8243 41° Northeast 471 542 39,000  Descending FlightAware ADS-B (YRPA)
08:17AM -32.2580 149.9097 41° Northeast 471 542 39,100  Climbing Aus ATC (RADAR)
08:17AM -32.2380 149.9300 41° Northeast 469 540 39,000  Descending FlightAware ADS-B (YRPA)
08:18AM -32.1603 150.0104 41° Northeast 469 540 39,100  Climbing Aus ATC (RADAR)
08:18AM -32.1395 150.0312 41° Northeast 470 541 39,000  Descending FlightAware ADS-B (YRPA)
08:18AM -32.0865 150.0857 41° Northeast 469 540 39,100 60 Climbing Aus ATC (RADAR)
08:19AM -32.0292 150.1444 41° Northeast 470 541 39,100  Level Aus ATC (RADAR)
08:20AM -31.9737 150.2007 41° Northeast 461 531 39,100 -180 Level Aus ATC (RADAR)
08:20AM -31.9605 150.2140 40° Northeast 470 541 39,000 -180 Descending FlightAware ADS-B (YPLB)
08:20AM -31.9096 150.2660 41° Northeast 469 540 39,000 60 Level FlightAware ADS-B (YPLB)
08:21AM -31.8571 150.3194 41° Northeast 470 541 39,100  Climbing Aus ATC (RADAR)
08:21AM -31.8410 150.3357 41° Northeast 469 540 39,000  Descending FlightAware ADS-B (YRPA)
08:22AM -31.7754 150.4025 41° Northeast 468 539 39,100  Climbing Aus ATC (RADAR)
08:22AM -31.7469 150.4310 40° Northeast 467 537 39,000 -180 Descending FlightAware ADS-B (YPLB)
08:22AM -31.6973 150.4812 40° Northeast 467 537 39,000  Level FlightAware ADS-B (YPLB)
08:23AM -31.6461 150.5329 40° Northeast 467 537 39,000  Level FlightAware ADS-B (YPLB)
08:24AM -31.5829 150.5967 40° Northeast 468 539 39,000 60 Level FlightAware ADS-B (YPLB)
08:24AM -31.5219 150.6579 40° Northeast 467 537 39,100  Climbing Aus ATC (RADAR)
08:24AM -31.5004 150.6796 40° Northeast 467 537 39,000 -180 Descending FlightAware ADS-B (YPLB)
08:25AM -31.4505 150.7299 40° Northeast 467 537 39,000  Level FlightAware ADS-B (YPLB)
08:25AM -31.4073 150.7734 40° Northeast 466 536 39,000  Level FlightAware ADS-B (YPLB)
08:26AM -31.3955 150.7852 40° Northeast 464 534 39,000  Level FlightAware ADS-B (YPLB)
08:27AM -31.2276 150.9528 40° Northeast 464 534 39,100  Climbing Aus ATC (RADAR)
08:27AM -31.2071 150.9732 40° Northeast 466 536 39,000  Descending FlightAware ADS-B (YPLB)
08:28AM -31.1057 151.0742 40° Northeast 459 528 39,100  Climbing Aus ATC (RADAR)
08:29AM -31.0681 151.1118 40° Northeast 468 539 39,000  Descending FlightAware ADS-B (YPLB)
08:29AM -30.9973 151.1829 40° Northeast 471 542 39,100 60 Climbing Aus ATC (RADAR)
08:30AM -30.9473 151.2315 40° Northeast 470 541 39,100  Level Aus ATC (RADAR)
08:31AM -30.8892 151.2890 40° Northeast 471 542 39,100 -180 Level Aus ATC (RADAR)
08:31AM -30.8734 151.3043 40° Northeast 473 544 39,000 -180 Descending FlightAware ADS-B (YPLB)
08:31AM -30.8172 151.3597 40° Northeast 475 547 39,000  Level FlightAware ADS-B (YSBK / BWU)
08:32AM -30.7591 151.4168 40° Northeast 475 547 39,000 60 Level FlightAware ADS-B (YPLB)
08:33AM -30.6716 151.5025 40° Northeast 474 545 39,100  Climbing Aus ATC (RADAR)
08:33AM -30.6326 151.5412 40° Northeast 470 541 39,000 -120 Descending FlightAware ADS-B (EKCH / CPH)
08:34AM -30.5798 151.5929 40° Northeast 470 541 39,000  Level FlightAware ADS-B (EKCH / CPH)
08:34AM -30.5186 151.6531 40° Northeast 470 541 39,000  Level FlightAware ADS-B (EKCH / CPH)
08:35AM -30.4312 151.7383 40° Northeast 471 542 39,000  Level FlightAware ADS-B (EKCH / CPH)
08:36AM -30.3799 151.7880 40° Northeast 471 542 39,000 60 Level FlightAware ADS-B (EKCH / CPH)
08:36AM -30.3230 151.8423 40° Northeast 470 541 39,100  Climbing Aus ATC (RADAR)
08:36AM -30.3681 151.7995 40° Northeast 470 541 39,000 -180 Descending FlightAware ADS-B (EKCH / CPH)
08:37AM -30.2717 151.8935 40° Northeast 469 540 39,000 60 Level FlightAware ADS-B (EKCH / CPH)
08:37AM -30.2082 151.9536 40° Northeast 457 526 39,100  Climbing Aus ATC (RADAR)
08:38AM -30.1819 151.9800 40° Northeast 468 539 39,000 -120 Descending FlightAware ADS-B (EKCH / CPH)
08:38AM -30.1152 152.0446 40° Northeast 467 537 39,000  Level FlightAware ADS-B (EKCH / CPH)
08:39AM -30.0495 152.1085 40° Northeast 468 539 39,000 60 Level FlightAware ADS-B (EKCH / CPH)
08:40AM -29.9916 152.1630 40° Northeast 469 540 39,100  Climbing Aus ATC (RADAR)
08:40AM -29.9827 152.1728 40° Northeast 470 541 39,000 -180 Descending FlightAware ADS-B (EKCH / CPH)
08:40AM -29.9329 152.2222 44° Northeast 474 545 39,000  Level FlightAware ADS-B (EKCH / CPH)
08:41AM -29.8875 152.2786 48° Northeast 481 554 39,000  Level FlightAware ADS-B (EKCH / CPH)
08:41AM -29.8441 152.3340 48° Northeast 482 555 39,000  Level FlightAware ADS-B (EKCH / CPH)
08:42AM -29.7976 152.3929 48° Northeast 483 556 39,000  Level FlightAware ADS-B (EKCH / CPH)
08:42AM -29.7383 152.4676 48° Northeast 483 556 39,000  Level FlightAware ADS-B (EKCH / CPH)
08:43AM -29.6955 152.5215 48° Northeast 484 557 39,000  Level FlightAware ADS-B (EKCH / CPH)
08:43AM -29.6322 152.6005 47° Northeast 485 558 39,000  Level FlightAware ADS-B (EKCH / CPH)
08:44AM -29.5862 152.6578 47° Northeast 485 558 39,000  Level FlightAware ADS-B (EKCH / CPH)
08:44AM -29.5411 152.7139 48° Northeast 484 557 39,000  Level FlightAware ADS-B (EKCH / CPH)
08:45AM -29.4965 152.7698 48° Northeast 485 558 39,000 60 Level FlightAware ADS-B (EKCH / CPH)
08:46AM -29.4141 152.8736 48° Northeast 483 556 39,100  Climbing Aus ATC (RADAR)
08:46AM -29.3890 152.9044 47° Northeast 485 558 39,000 -180 Descending FlightAware ADS-B (EKCH / CPH)
08:47AM -29.3437 152.9606 47° Northeast 485 558 39,000  Level FlightAware ADS-B (EKCH / CPH)
08:47AM -29.3003 153.0147 48° Northeast 486 559 39,000  Level FlightAware ADS-B (EKCH / CPH)
08:48AM -29.2551 153.0708 47° Northeast 486 559 39,000  Level FlightAware ADS-B (EKCH / CPH)
08:48AM -29.2064 153.1310 47° Northeast 486 559 39,000  Level FlightAware ADS-B (EKCH / CPH)
08:48AM -29.1767 153.1678 47° Northeast 486 559 39,000  Level FlightAware ADS-B (EKCH / CPH)
08:49AM -29.1305 153.2248 47° Northeast 484 557 39,000  Level FlightAware ADS-B (EKCH / CPH)
08:49AM -29.0852 153.2808 47° Northeast 485 558 39,000  Level FlightAware ADS-B (EKCH / CPH)
08:50AM -29.0391 153.3377 47° Northeast 485 558 39,000  Level FlightAware ADS-B (EKCH / CPH)
08:50AM -29.0084 153.3753 48° Northeast 479 551 39,000  Level FlightAware ADS-B (YTWB)
08:51AM -28.9626 153.4315 47° Northeast 485 558 39,000 60 Level FlightAware ADS-B (EKCH / CPH)
08:51AM -28.8976 153.5119 47° Northeast 481 554 39,100  Climbing Aus ATC (RADAR)
08:52AM -28.8863 153.5251 47° Northeast 484 557 39,000 -180 Descending FlightAware ADS-B (EKCH / CPH)
08:52AM -28.8407 153.5808 47° Northeast 484 557 39,000  Level FlightAware ADS-B (EKCH / CPH)
08:53AM -28.7953 153.6360 47° Northeast 484 557 39,000  Level FlightAware ADS-B (EKCH / CPH)
08:53AM -28.7509 153.6903 47° Northeast 485 558 39,000  Level FlightAware ADS-B (EKCH / CPH)
08:54AM -28.7036 153.7480 47° Northeast 485 558 39,000  Level FlightAware ADS-B (EKCH / CPH)
08:54AM -28.6605 153.8004 47° Northeast 486 559 39,000  Level FlightAware ADS-B (EKCH / CPH)
08:54AM -28.6277 153.8404 47° Northeast 487 560 39,000  Level FlightAware ADS-B (EKCH / CPH)
08:55AM -28.5834 153.8943 47° Northeast 488 562 39,000  Level FlightAware ADS-B (EKCH / CPH)
08:55AM -28.5339 153.9545 47° Northeast 488 562 39,000  Level FlightAware ADS-B (EKCH / CPH)
08:56AM -28.4881 154.0100 47° Northeast 490 564 39,000  Level FlightAware ADS-B (EKCH / CPH)
08:56AM -28.4410 154.0670 47° Northeast 492 566 39,000  Level FlightAware ADS-B (EKCH / CPH)
08:57AM -28.3960 154.1211 47° Northeast 492 566 39,000  Level FlightAware ADS-B (EKCH / CPH)
08:57AM -28.3488 154.1781 47° Northeast 495 570 39,000  Level FlightAware ADS-B (EKCH / CPH)
08:58AM -28.3002 154.2365 47° Northeast 496 571 39,000 60 Level FlightAware ADS-B (EKCH / CPH)
08:58AM -28.2491 154.2983 47° Northeast 495 570 39,100  Climbing Aus ATC (RADAR)
08:58AM -28.2481 154.2990 47° Northeast 499 574 39,000 -180 Descending FlightAware ADS-B (EKCH / CPH)
08:59AM -28.1913 154.3672 47° Northeast 500 575 39,000  Level FlightAware ADS-B (EKCH / CPH)
09:00AM -28.1422 154.4265 47° Northeast 502 578 39,000 60 Level FlightAware ADS-B (EKCH / CPH)
09:00AM -28.0903 154.4893 47° Northeast 501 577 39,100  Climbing Aus ATC (RADAR)
09:00AM -28.0796 154.5018 47° Northeast 502 578 39,000  Descending FlightAware ADS-B (EKCH / CPH)
09:01AM -27.9871 154.6127 47° Northeast 498 573 39,100  Climbing Aus ATC (RADAR)
09:01AM -27.9748 154.6269 47° Northeast 500 575 39,000 -180 Descending FlightAware ADS-B (EKCH / CPH)
09:02AM -27.9217 154.6904 47° Northeast 501 577 39,000  Level FlightAware ADS-B (EKCH / CPH)
09:02AM -27.8737 154.7473 47° Northeast 502 578 39,000 60 Level FlightAware ADS-B (EKCH / CPH)
09:03AM -27.7737 154.8654 47° Northeast 480 552 39,100  Climbing Aus ATC (RADAR)
09:04AM -27.7594 154.8827 46° Northeast 506 582 39,000 -180 Descending FlightAware ADS-B (EKCH / CPH)
09:04AM -27.6945 154.9595 47° Northeast 510 587 39,000  Level FlightAware ADS-B (EKCH / CPH)
09:05AM -27.6445 155.0184 46° Northeast 512 589 39,000  Level FlightAware ADS-B (EKCH / CPH)
09:05AM -27.5950 155.0769 46° Northeast 515 593 39,000  Level FlightAware ADS-B (EKCH / CPH)
09:06AM -27.5461 155.1347 47° Northeast 517 595 39,000  Level FlightAware ADS-B (EKCH / CPH)
09:06AM -27.4963 155.1934 47° Northeast 519 597 39,000  Level FlightAware ADS-B (EKCH / CPH)
09:07AM -27.4398 155.2598 47° Northeast 515 593 39,000  Level FlightAware ADS-B (YTWB)
09:07AM -27.4166 155.2870 47° Northeast 516 594 39,000  Level FlightAware ADS-B (YTWB)
09:08AM -27.3575 155.3561 47° Northeast 517 595 39,000  Level FlightAware ADS-B (YTWB)
09:08AM -27.2981 155.4260 47° Northeast 523 602 39,000  Level FlightAware ADS-B (EKCH / CPH)
09:09AM -27.2521 155.4800 46° Northeast 523 602 39,000  Level FlightAware ADS-B (EKCH / CPH)
09:09AM -27.1827 155.5609 46° Northeast 524 603 39,000  Level FlightAware ADS-B (EKCH / CPH)
09:10AM -27.1280 155.6246 46° Northeast 525 604 39,000  Level FlightAware ADS-B (EKCH / CPH)
09:11AM -27.0649 155.6979 46° Northeast 526 605 39,000  Level FlightAware ADS-B (EKCH / CPH)
09:11AM -26.9938 155.7804 46° Northeast 525 604 39,000  Level FlightAware ADS-B (EKCH / CPH)
09:12AM -26.9430 155.8393 46° Northeast 525 604 39,000  Level FlightAware ADS-B (EKCH / CPH)
09:12AM -26.8916 155.8989 46° Northeast 525 604 39,000  Level FlightAware ADS-B (EKCH / CPH)
09:13AM -26.8276 155.9729 46° Northeast 523 602 39,000  Level FlightAware ADS-B (EKCH / CPH)
09:13AM -26.7746 156.0340 46° Northeast 523 602 39,000 60 Level FlightAware ADS-B (EKCH / CPH)
09:14AM -26.7210 156.0944 46° Northeast 518 596 39,100  Climbing Aus ATC (RADAR)
09:15AM -26.6727 156.1514 46° Northeast 521 600 39,000  Descending FlightAware ADS-B (EKCH / CPH)
09:16AM -26.5029 156.3447 46° Northeast 516 594 39,100  Climbing Aus ATC (RADAR)
09:16AM -26.4729 156.3805 46° Northeast 521 600 39,000 -180 Descending FlightAware ADS-B (EKCH / CPH)
09:17AM -26.4223 156.4385 46° Northeast 520 598 39,000  Level FlightAware ADS-B (EKCH / CPH)
09:18AM -26.2930 156.5836 46° Northeast 513 590 39,100  Climbing Aus ATC (RADAR)
09:18AM -26.2885 156.5910 46° Northeast 519 597 39,000  Descending FlightAware ADS-B (EKCH / CPH)
09:19AM -26.1935 156.6985 46° Northeast 511 588 39,100  Climbing Aus ATC (RADAR)
09:20AM -26.1373 156.7628 46° Northeast 518 596 39,000 -120 Descending FlightAware ADS-B (EKCH / CPH)
09:20AM -26.0758 156.8309 46° Northeast 512 589 39,000  Level Aus ATC (RADAR)
09:20AM -26.0695 156.8398 46° Northeast 517 595 39,000  Level FlightAware ADS-B (EKCH / CPH)
09:21AM -26.0188 156.8971 46° Northeast 516 594 39,000  Level FlightAware ADS-B (EKCH / CPH)
09:22AM -25.9517 156.9728 46° Northeast 516 594 39,000  Level FlightAware ADS-B (EKCH / CPH)
09:22AM -25.8685 157.0679 46° Northeast 508 585 39,000  Level Aus ATC (RADAR)
09:24AM -25.7501 157.1987 45° Northeast 510 587 39,000  Level Aus ATC (RADAR)
09:25AM -25.6500 157.3119 46° Northeast 510 587 39,000  Level Aus ATC (RADAR)
09:26AM -25.5406 157.4347 45° Northeast 508 585 39,000  Level Aus ATC (RADAR)
09:27AM -25.4326 157.5564 46° Northeast 506 582 39,000  Level Aus ATC (RADAR)
09:27AM -25.3827 157.6114 45° Northeast 506 582 39,000  Level Aus ATC (RADAR)
09:32AM -24.9483 158.0918 45° Northeast 39,000  Level Aus ATC (Calculated)
09:33AM -24.8258 158.2263 55° Northeast 39,000  Level Aus ATC (Calculated)
09:35AM -24.6913 158.4358 55° Northeast  Level Estimated
09:36AM -24.6165 158.5519 55° Northeast  Level Estimated
09:37AM -24.5416 158.6679 55° Northeast  Level Estimated
09:38AM -24.4665 158.7838 55° Northeast  Level Estimated
09:39AM -24.3914 158.8996 55° Northeast  Level Estimated
09:40AM -24.3162 159.0152 54° Northeast  Level Estimated
09:41AM -24.2409 159.1306 54° Northeast  Level Estimated
09:42AM -24.1656 159.2460 54° Northeast  Level Estimated
09:43AM -24.0901 159.3612 54° Northeast  Level Estimated
09:44AM -24.0146 159.4762 54° Northeast  Level Estimated
09:45AM -23.8184 159.6691 211° Southwest 39,000  Level Aus ATC (Calculated)
09:45AM -23.9390 159.5912 54° Northeast  Level Estimated
09:46AM -23.7432 159.7842 54° Northeast  Level Estimated
09:47AM -23.6679 159.8992 54° Northeast  Level Estimated
09:47AM -23.5929 159.9864 89° East 39,000  Level Aus ATC (Calculated)
09:48AM -23.5926 160.0140 54° Northeast  Level Estimated
09:49AM -23.4829 160.1540 54° Northeast  Level Estimated
09:50AM -23.4079 160.2682 54° Northeast  Level Estimated
09:51AM -23.3327 160.3822 54° Northeast  Level Estimated
09:52AM -23.2575 160.4960 54° Northeast  Level Estimated
09:53AM -23.1822 160.6098 54° Northeast  Level Estimated
09:54AM -23.1068 160.7234 54° Northeast  Level Estimated
09:55AM -23.0313 160.8369 54° Northeast  Level Estimated
09:56AM -22.9558 160.9503 54° Northeast  Level Estimated
09:56AM -22.8388 161.0331 146° Southeast 39,000  Level Aus ATC (Calculated)
09:57AM -22.8801 161.0635 54° Northeast  Level Estimated
09:58AM -22.7024 161.2394 54° Northeast  Level Estimated
09:59AM -22.6218 161.3483 51° Northeast  Level FlightAware Approximate
09:59AM -22.6125 161.3431 52° Northeast 39,000  Level Aus ATC (Calculated)
10:00AM -22.5324 161.4524 52° Northeast  Level FlightAware Approximate
10:01AM -22.4523 161.5616 52° Northeast  Level FlightAware Approximate
10:02AM -22.3720 161.6706 51° Northeast  Level FlightAware Approximate
10:03AM -22.2917 161.7795 51° Northeast  Level FlightAware Approximate
10:04AM -22.2114 161.8883 51° Northeast  Level FlightAware Approximate
10:05AM -22.1309 161.9970 51° Northeast  Level FlightAware Approximate
10:06AM -22.0504 162.1055 51° Northeast  Level FlightAware Approximate
10:07AM -21.9698 162.2139 51° Northeast  Level FlightAware Approximate
10:08AM -21.8891 162.3222 51° Northeast  Level FlightAware Approximate
10:09AM -21.8084 162.4304 51° Northeast  Level FlightAware Approximate
10:09AM -21.7287 162.5369 51° Northeast 39,000  Level Aus ATC (Calculated)
10:10AM -21.7276 162.5384 51° Northeast  Level FlightAware Approximate
10:11AM -21.5669 162.7526 51° Northeast  Level FlightAware Approximate
10:11AM -21.5548 162.7687 51° Northeast 39,000  Level Aus ATC (Calculated)
10:12AM -21.4737 162.8764 51° Northeast  Level FlightAware Approximate
10:13AM -21.3926 162.9839 51° Northeast  Level FlightAware Approximate
10:14AM -21.3246 163.0823 54° Northeast  Level FlightAware Approximate
10:14AM -21.3236 163.0838 54° Northeast 1,600  Level Aus ATC (Calculated)
10:15AM -21.2477 163.1956 54° Northeast  Level FlightAware Approximate
10:16AM -21.1717 163.3071 54° Northeast  Level FlightAware Approximate
10:17AM -21.0956 163.4186 54° Northeast  Level FlightAware Approximate
10:17AM -21.0957 163.4185 54° Northeast 1,600  Level Aus ATC (Calculated)
10:19AM -20.9497 163.6319 54° Northeast  Level FlightAware Approximate
10:20AM -20.8734 163.7430 54° Northeast  Level FlightAware Approximate
10:21AM -20.7971 163.8541 54° Northeast  Level FlightAware Approximate
10:22AM -20.7207 163.9650 54° Northeast  Level FlightAware Approximate
10:23AM -20.6442 164.0758 54° Northeast  Level FlightAware Approximate
10:24AM -20.5676 164.1865 54° Northeast  Level FlightAware Approximate
10:25AM -20.4910 164.2971 54° Northeast  Level FlightAware Approximate
10:26AM -20.4143 164.4076 53° Northeast  Level FlightAware Approximate
10:27AM -20.3375 164.5179 53° Northeast  Level FlightAware Approximate
10:28AM -20.2607 164.6282 53° Northeast  Level FlightAware Approximate
10:29AM -20.1838 164.7384 53° Northeast  Level FlightAware Approximate
10:30AM -20.1068 164.8484 53° Northeast  Level FlightAware Approximate
10:31AM -20.0298 164.9583 53° Northeast  Level FlightAware Approximate
10:32AM -19.9527 165.0682 53° Northeast  Level FlightAware Approximate
10:32AM -19.8885 165.1593 53° Northeast 1,600  Level Aus ATC (Calculated)
10:34AM -19.7791 165.3146 53° Northeast  Level FlightAware Approximate
10:35AM -19.7018 165.4241 53° Northeast  Level FlightAware Approximate
10:36AM -19.6244 165.5335 53° Northeast  Level FlightAware Approximate
10:37AM -19.5469 165.6427 53° Northeast  Level FlightAware Approximate
10:38AM -19.4694 165.7519 53° Northeast  Level FlightAware Approximate
10:39AM -19.3918 165.8609 53° Northeast  Level FlightAware Approximate
10:40AM -19.3141 165.9699 53° Northeast  Level FlightAware Approximate
10:41AM -19.2364 166.0788 53° Northeast  Level FlightAware Approximate
10:42AM -19.1586 166.1875 53° Northeast  Level FlightAware Approximate
10:43AM -19.0808 166.2961 53° Northeast  Level FlightAware Approximate
10:44AM -19.0029 166.4047 53° Northeast  Level FlightAware Approximate
10:45AM -18.9249 166.5131 53° Northeast  Level FlightAware Approximate
10:46AM -18.8468 166.6215 53° Northeast  Level FlightAware Approximate
10:47AM -18.7687 166.7297 53° Northeast  Level FlightAware Approximate
10:48AM -18.6906 166.8378 53° Northeast  Level FlightAware Approximate
10:49AM -18.6124 166.9459 53° Northeast  Level FlightAware Approximate
10:50AM -18.5341 167.0538 53° Northeast  Level FlightAware Approximate
10:51AM -18.4557 167.1617 53° Northeast  Level FlightAware Approximate
10:52AM -18.3773 167.2694 53° Northeast  Level FlightAware Approximate
10:53AM -18.2988 167.3771 52° Northeast  Level FlightAware Approximate
10:54AM -18.2203 167.4846 52° Northeast  Level FlightAware Approximate
10:55AM -18.1417 167.5921 52° Northeast  Level FlightAware Approximate
10:56AM -18.0631 167.6994 52° Northeast  Level FlightAware Approximate
10:57AM -17.9844 167.8067 52° Northeast  Level FlightAware Approximate
10:58AM -17.9056 167.9138 52° Northeast  Level FlightAware Approximate
10:59AM -17.8267 168.0209 52° Northeast  Level FlightAware Approximate
11:00AM -17.7479 168.1279 52° Northeast  Level FlightAware Approximate
11:01AM -17.6689 168.2348 52° Northeast  Level FlightAware Approximate
11:02AM -17.6621 168.2439 54° Northeast  Level FlightAware Approximate
11:03AM -17.6993 168.3198 117° Southeast  Level Estimated
11:04AM -17.6993 168.3198 North  Level Estimated
11:05AM -17.6993 168.3198 North  Level Estimated
11:06AM -17.6993 168.3198 North  Level Estimated
11:07AM -17.6993 168.3198 North  Level Estimated
11:08AM -17.6993 168.3198 North  Level Estimated
11:09AM -17.6993 168.3198 North  Level Estimated
11:10AM -17.6993 168.3198 North  Level Estimated
11:11AM -17.6993 168.3198 North  Level Estimated
11:12AM -17.6993 168.3198 North  Level Estimated
11:13AM -17.6993 168.3198 North  Level Estimated
11:14AM -17.6993 168.3198 North  Level Estimated
11:15AM -17.6993 168.3198 North  Level Estimated
11:16AM -17.6993 168.3198 North  Level Estimated
11:17AM -17.6993 168.3198 North  Level Estimated
11:18AM -17.6993 168.3198 North  Level Estimated
11:19AM -17.6993 168.3198 North  Level Estimated
11:20AM -17.6993 168.3198 North  Level Estimated